Time;durP1;ratioP1;P1;durP2;ratioP2;P2;SDS_P1;SDS_P2;PMS_P1;PMS_P2;Temp;Humidity;BMP_temperature;BMP_pressure;BME280_temperature;BME280_humidity;BME280_pressure;Samples;Min_cycle;Max_cycle;Signal;HPM_P1;HPM_P2
2022/08/21 00:01:53;;;;;;;3.77;2.87;;;25.20;49.20;;;;;;5005760;28;20446;-66
2022/08/21 00:04:22;;;;;;;3.30;2.97;;;25.20;49.40;;;;;;4984922;28;20454;-67
2022/08/21 00:06:59;;;;;;;2.90;2.70;;;25.10;49.30;;;;;;4986659;28;20468;-67
2022/08/21 00:09:27;;;;;;;4.23;3.03;;;25.20;49.30;;;;;;4982046;28;20601;-67
2022/08/21 00:11:55;;;;;;;3.23;2.87;;;25.20;49.30;;;;;;4989237;28;20551;-67
2022/08/21 00:14:24;;;;;;;3.70;3.03;;;25.20;49.40;;;;;;4982491;28;20440;-67
2022/08/21 00:16:59;;;;;;;4.50;3.10;;;25.20;49.30;;;;;;4988791;28;20461;-67
2022/08/21 00:19:28;;;;;;;3.33;3.03;;;25.20;49.30;;;;;;4992844;28;20479;-67
2022/08/21 00:21:58;;;;;;;3.27;2.97;;;25.10;49.20;;;;;;5001325;28;20450;-66
2022/08/21 00:24:28;;;;;;;2.87;2.50;;;25.10;49.10;;;;;;4988242;28;20895;-67
2022/08/21 00:26:56;;;;;;;6.10;2.90;;;25.10;49.10;;;;;;5005280;28;20508;-67
2022/08/21 00:29:25;;;;;;;3.37;3.07;;;25.10;49.10;;;;;;4986977;28;20445;-68
2022/08/21 00:31:54;;;;;;;4.40;3.60;;;25.10;49.10;;;;;;4972185;28;20466;-67
2022/08/21 00:34:22;;;;;;;3.37;3.07;;;25.10;49.00;;;;;;4984396;28;20430;-67
2022/08/21 00:36:51;;;;;;;3.33;3.03;;;25.10;49.00;;;;;;4999943;28;20957;-67
2022/08/21 00:39:21;;;;;;;2.80;2.60;;;25.10;49.00;;;;;;4987661;28;20469;-66
2022/08/21 00:41:49;;;;;;;3.47;3.17;;;25.10;49.10;;;;;;4999903;28;20460;-67
2022/08/21 00:44:18;;;;;;;3.37;3.07;;;25.10;49.10;;;;;;5002967;28;20442;-67
2022/08/21 00:46:46;;;;;;;5.13;3.27;;;25.10;49.00;;;;;;4983153;28;20438;-68
2022/08/21 00:49:15;;;;;;;2.90;2.70;;;25.10;49.10;;;;;;4986368;28;20445;-67
2022/08/21 00:51:48;;;;;;;4.37;3.10;;;25.10;49.10;;;;;;5004474;28;20481;-67
2022/08/21 00:54:17;;;;;;;3.30;3.00;;;25.10;49.10;;;;;;5004398;28;20500;-67
2022/08/21 00:56:51;;;;;;;3.43;3.13;;;25.10;49.10;;;;;;4987805;28;20445;-67
2022/08/21 00:59:21;;;;;;;3.60;3.20;;;25.10;49.10;;;;;;4985934;28;20479;-67
2022/08/21 01:01:51;;;;;;;3.70;3.27;;;25.10;49.00;;;;;;4984989;28;20869;-67
2022/08/21 01:04:21;;;;;;;3.40;3.10;;;25.10;49.10;;;;;;5017767;23;20582;-53
2022/08/21 01:06:51;;;;;;;3.83;2.97;;;25.10;49.10;;;;;;4986036;28;20492;-54
2022/08/21 01:09:20;;;;;;;3.20;2.90;;;25.10;49.00;;;;;;5009916;28;20433;-54
2022/08/21 01:11:50;;;;;;;3.07;2.70;;;25.10;49.00;;;;;;4989669;28;20462;-54
2022/08/21 01:14:19;;;;;;;3.67;3.30;;;25.10;49.10;;;;;;4988866;28;20473;-55
2022/08/21 01:16:52;;;;;;;3.10;2.90;;;25.10;49.10;;;;;;4998323;28;20493;-53
2022/08/21 01:19:22;;;;;;;3.50;3.20;;;25.10;49.10;;;;;;4982912;28;20980;-52
2022/08/21 01:21:53;;;;;;;3.37;2.80;;;25.10;49.10;;;;;;4981403;28;20844;-54
2022/08/21 01:24:22;;;;;;;3.53;3.10;;;25.00;49.10;;;;;;4985130;28;20478;-53
2022/08/21 01:26:52;;;;;;;4.00;3.60;;;25.00;49.10;;;;;;4985318;28;20439;-52
2022/08/21 01:29:31;;;;;;;5.13;3.17;;;25.00;49.10;;;;;;4988366;28;20567;-52
2022/08/21 01:32:00;;;;;;;3.50;3.00;;;25.00;49.00;;;;;;4986534;28;20457;-55
2022/08/21 01:34:29;;;;;;;4.10;3.70;;;25.00;49.10;;;;;;4986006;28;20474;-52
2022/08/21 01:36:59;;;;;;;3.00;2.80;;;25.00;49.00;;;;;;5002014;28;20445;-52
2022/08/21 01:39:27;;;;;;;3.50;3.20;;;25.00;49.00;;;;;;4981833;28;20469;-52
2022/08/21 01:41:56;;;;;;;3.30;2.60;;;25.00;49.10;;;;;;4986775;28;20480;-52
2022/08/21 01:44:26;;;;;;;3.23;2.93;;;25.00;49.00;;;;;;4989163;28;20528;-52
2022/08/21 01:46:55;;;;;;;3.07;2.77;;;25.00;49.00;;;;;;4985888;28;20449;-51
2022/08/21 01:49:24;;;;;;;3.50;3.10;;;25.00;49.00;;;;;;4985521;28;20888;-52
2022/08/21 01:51:53;;;;;;;3.60;3.03;;;25.00;50.20;;;;;;4987646;28;20492;-52
2022/08/21 01:54:23;;;;;;;4.10;2.93;;;25.00;48.90;;;;;;4989692;28;20445;-51
2022/08/21 01:56:54;;;;;;;4.90;2.60;;;25.00;48.90;;;;;;4986294;28;20508;-52
2022/08/21 01:59:24;;;;;;;4.00;3.30;;;25.00;48.90;;;;;;4987716;28;20457;-52
2022/08/21 02:01:54;;;;;;;2.83;2.63;;;25.00;48.90;;;;;;4989911;28;20453;-52
2022/08/21 02:04:23;;;;;;;3.30;3.00;;;25.00;48.90;;;;;;4981845;28;20472;-52
2022/08/21 02:06:52;;;;;;;2.70;2.50;;;25.00;49.00;;;;;;4985730;28;20426;-52
2022/08/21 02:09:22;;;;;;;2.70;2.50;;;25.00;49.00;;;;;;4986030;28;20446;-52
2022/08/21 02:11:53;;;;;;;2.70;2.50;;;24.90;48.90;;;;;;4989255;28;20441;-52
2022/08/21 02:14:22;;;;;;;3.57;2.80;;;24.90;48.90;;;;;;4986491;28;20556;-52
2022/08/21 02:17:00;;;;;;;3.30;2.80;;;24.90;48.90;;;;;;4990086;28;20442;-52
2022/08/21 02:19:37;;;;;;;5.77;3.60;;;24.90;48.80;;;;;;4985129;28;20450;-51
2022/08/21 02:22:09;;;;;;;2.93;2.67;;;24.90;48.90;;;;;;4984843;28;20530;-52
2022/08/21 02:24:38;;;;;;;3.00;2.73;;;24.90;48.90;;;;;;4989975;28;20474;-52
2022/08/21 02:27:23;;;;;;;2.23;2.10;;;24.90;48.90;;;;;;4988126;28;20445;-52
2022/08/21 02:29:55;;;;;;;3.20;2.90;;;24.90;48.90;;;;;;4992504;28;20472;-52
2022/08/21 02:32:24;;;;;;;3.27;3.00;;;24.90;48.80;;;;;;4989210;28;20916;-52
2022/08/21 02:34:53;;;;;;;3.17;2.90;;;24.90;48.90;;;;;;4985896;28;20505;-52
2022/08/21 02:37:22;;;;;;;3.23;2.90;;;24.90;48.90;;;;;;4991000;28;20473;-52
2022/08/21 02:39:51;;;;;;;3.90;3.40;;;24.90;48.90;;;;;;4989397;28;20828;-52
2022/08/21 02:42:20;;;;;;;3.60;2.77;;;24.90;48.70;;;;;;5000067;28;20437;-52
2022/08/21 02:44:50;;;;;;;4.40;2.80;;;24.90;48.90;;;;;;4996762;28;20481;-52
2022/08/21 02:47:18;;;;;;;3.70;3.33;;;24.90;48.90;;;;;;5010475;28;20684;-52
2022/08/21 02:49:47;;;;;;;3.10;2.80;;;24.90;48.90;;;;;;4995990;28;20917;-52
2022/08/21 02:52:16;;;;;;;2.97;2.73;;;24.90;48.90;;;;;;4991744;28;20545;-52
2022/08/21 02:54:44;;;;;;;2.73;2.50;;;24.90;48.90;;;;;;4992647;28;20553;-51
2022/08/21 02:57:13;;;;;;;3.10;2.90;;;24.90;48.90;;;;;;5002803;28;20436;-52
2022/08/21 02:59:42;;;;;;;3.43;2.93;;;24.90;48.90;;;;;;4990898;28;20558;-52
2022/08/21 03:02:12;;;;;;;3.23;2.73;;;24.80;48.90;;;;;;4990192;28;20546;-52
2022/08/21 03:04:40;;;;;;;3.70;2.80;;;24.80;48.90;;;;;;4984556;28;21098;-53
2022/08/21 03:07:15;;;;;;;3.67;2.87;;;24.80;48.90;;;;;;4992455;28;20980;-52
2022/08/21 03:09:43;;;;;;;3.70;3.40;;;24.80;48.80;;;;;;4992293;28;20442;-52
2022/08/21 03:12:23;;;;;;;3.10;2.80;;;24.80;48.90;;;;;;4992696;28;20437;-53
2022/08/21 03:14:55;;;;;;;2.40;2.20;;;24.80;48.80;;;;;;4984204;28;20478;-52
2022/08/21 03:17:25;;;;;;;3.00;2.80;;;24.80;48.90;;;;;;4989383;28;20501;-51
2022/08/21 03:19:58;;;;;;;3.20;2.90;;;24.80;48.90;;;;;;4972923;28;20488;-52
2022/08/21 03:22:27;;;;;;;2.83;2.40;;;24.80;48.90;;;;;;4983026;28;20438;-52
2022/08/21 03:24:58;;;;;;;5.10;3.23;;;24.80;49.00;;;;;;4985811;28;20548;-51
2022/08/21 03:27:28;;;;;;;2.97;2.73;;;24.80;48.90;;;;;;4981368;28;20812;-52
2022/08/21 03:29:58;;;;;;;3.63;3.30;;;24.80;48.90;;;;;;4991194;28;20442;-52
2022/08/21 03:32:28;;;;;;;3.47;2.60;;;24.70;48.40;;;;;;4992354;28;20449;-52
2022/08/21 03:34:57;;;;;;;3.40;2.90;;;24.70;48.50;;;;;;4976050;28;20566;-52
2022/08/21 03:37:26;;;;;;;2.90;2.60;;;24.70;48.50;;;;;;4992312;28;20438;-50
2022/08/21 03:39:54;;;;;;;2.80;2.60;;;24.70;48.60;;;;;;4984237;28;20475;-52
2022/08/21 03:42:23;;;;;;;3.27;2.97;;;24.70;48.90;;;;;;4983584;28;20444;-52
2022/08/21 03:44:52;;;;;;;3.37;2.80;;;24.70;48.60;;;;;;4983935;28;20473;-52
2022/08/21 03:47:21;;;;;;;3.80;2.87;;;24.70;48.80;;;;;;4976431;28;20442;-52
2022/08/21 03:49:51;;;;;;;4.33;3.27;;;24.70;48.80;;;;;;4984104;28;20488;-52
2022/08/21 03:52:20;;;;;;;5.93;3.33;;;24.70;48.80;;;;;;4982304;28;20438;-52
2022/08/21 03:54:50;;;;;;;3.10;2.80;;;24.70;48.80;;;;;;4990955;28;20474;-52
2022/08/21 03:57:21;;;;;;;3.20;2.90;;;24.70;48.80;;;;;;4972713;28;20434;-52
2022/08/21 03:59:50;;;;;;;2.57;2.37;;;24.70;48.90;;;;;;4982145;28;21009;-53
2022/08/21 04:02:21;;;;;;;2.50;2.10;;;24.70;48.80;;;;;;4979512;28;20439;-52
2022/08/21 04:04:52;;;;;;;2.90;2.70;;;24.70;48.90;;;;;;4982864;28;20536;-52
2022/08/21 04:07:20;;;;;;;2.53;2.17;;;24.70;49.00;;;;;;4991428;28;20431;-51
2022/08/21 04:09:49;;;;;;;3.40;3.10;;;24.70;49.00;;;;;;4974954;28;20476;-52
2022/08/21 04:12:18;;;;;;;2.63;2.40;;;24.70;49.00;;;;;;4972988;28;20446;-52
2022/08/21 04:14:47;;;;;;;2.50;2.30;;;24.70;49.00;;;;;;4974009;28;20470;-52
2022/08/21 04:17:16;;;;;;;2.60;2.37;;;24.70;49.00;;;;;;4998674;28;20440;-52
2022/08/21 04:19:45;;;;;;;3.20;2.90;;;24.60;49.00;;;;;;4979691;28;20533;-52
2022/08/21 04:22:22;;;;;;;2.63;2.43;;;24.60;48.90;;;;;;4990546;28;20430;-52
2022/08/21 04:24:51;;;;;;;3.50;2.60;;;24.70;49.10;;;;;;4989805;28;20474;-52
2022/08/21 04:27:19;;;;;;;3.00;2.60;;;24.60;49.00;;;;;;4989426;28;20529;-52
2022/08/21 04:29:48;;;;;;;3.40;2.47;;;24.60;48.90;;;;;;4978996;28;20479;-52
2022/08/21 04:32:23;;;;;;;3.00;2.63;;;24.60;48.90;;;;;;4989401;28;20528;-52
2022/08/21 04:34:58;;;;;;;3.40;2.90;;;24.60;48.90;;;;;;4985207;28;20916;-52
2022/08/21 04:37:28;;;;;;;2.50;2.30;;;24.60;48.80;;;;;;4978027;28;20477;-52
2022/08/21 04:39:58;;;;;;;2.60;2.40;;;24.60;48.80;;;;;;4982582;28;20475;-52
2022/08/21 04:42:28;;;;;;;3.00;2.70;;;24.50;48.60;;;;;;4986196;28;20825;-52
2022/08/21 04:44:57;;;;;;;2.77;2.57;;;24.60;48.80;;;;;;4978928;28;20506;-52
2022/08/21 04:47:26;;;;;;;3.40;3.10;;;24.60;48.90;;;;;;4982149;28;20468;-53
2022/08/21 04:50:15;;;;;;;4.50;3.20;;;24.60;48.90;;;;;;4974941;28;20518;-52
2022/08/21 04:52:56;;;;;;;3.30;2.10;;;24.60;48.90;;;;;;4991104;28;20508;-52
2022/08/21 04:55:27;;;;;;;4.00;2.57;;;24.60;48.80;;;;;;4981266;28;20474;-52
2022/08/21 04:57:57;;;;;;;2.80;2.60;;;24.50;48.70;;;;;;4984160;28;20483;-52
2022/08/21 05:00:26;;;;;;;2.93;2.47;;;24.50;48.90;;;;;;4981550;28;20470;-52
2022/08/21 05:02:58;;;;;;;2.40;2.30;;;24.50;48.70;;;;;;4990425;28;20957;-52
2022/08/21 05:05:29;;;;;;;3.83;2.57;;;24.50;48.70;;;;;;4984532;28;20577;-52
2022/08/21 05:08:03;;;;;;;2.67;2.47;;;24.50;48.80;;;;;;4987473;28;20438;-52
2022/08/21 05:10:32;;;;;;;2.50;2.27;;;24.50;48.80;;;;;;4984447;28;20570;-52
2022/08/21 05:13:01;;;;;;;2.80;2.40;;;24.50;48.70;;;;;;4977415;28;20517;-52
2022/08/21 05:15:31;;;;;;;2.40;2.20;;;24.50;48.80;;;;;;4972149;28;20570;-52
2022/08/21 05:18:02;;;;;;;4.00;2.73;;;24.50;48.90;;;;;;4978946;28;20860;-52
2022/08/21 05:20:34;;;;;;;2.77;2.57;;;24.50;48.90;;;;;;4986928;28;20480;-52
2022/08/21 05:23:08;;;;;;;2.53;2.33;;;24.50;48.80;;;;;;4982511;28;21000;-52
2022/08/21 05:25:38;;;;;;;2.90;2.40;;;24.50;48.80;;;;;;4983216;28;20488;-52
2022/08/21 05:28:07;;;;;;;2.20;2.00;;;24.50;48.80;;;;;;4982087;28;20949;-52
2022/08/21 05:30:37;;;;;;;2.63;2.43;;;24.50;48.80;;;;;;4979634;28;20517;-52
2022/08/21 05:33:07;;;;;;;3.03;2.73;;;24.50;48.80;;;;;;4978729;28;20471;-52
2022/08/21 05:35:36;;;;;;;2.40;2.20;;;24.50;48.80;;;;;;4975975;28;20485;-51
2022/08/21 05:38:06;;;;;;;2.90;2.53;;;24.50;48.80;;;;;;4986534;28;20433;-51
2022/08/21 05:40:45;;;;;;;2.83;2.50;;;24.50;48.90;;;;;;4986384;28;21068;-52
2022/08/21 05:43:14;;;;;;;2.80;2.60;;;24.50;48.90;;;;;;4982956;28;20562;-52
2022/08/21 05:45:42;;;;;;;2.93;2.67;;;24.40;48.80;;;;;;4977094;28;20477;-52
2022/08/21 05:48:14;;;;;;;2.70;2.50;;;24.40;48.80;;;;;;4978669;28;20454;-52
2022/08/21 05:50:43;;;;;;;2.40;2.20;;;24.40;48.80;;;;;;4987716;28;20482;-52
2022/08/21 05:53:14;;;;;;;2.43;2.23;;;24.40;48.80;;;;;;4978621;28;20467;-52
2022/08/21 05:55:45;;;;;;;2.53;2.33;;;24.40;48.90;;;;;;4983692;28;20480;-53
2022/08/21 05:58:16;;;;;;;4.93;2.63;;;24.40;48.90;;;;;;4985072;28;20790;-52
2022/08/21 06:00:47;;;;;;;2.47;2.27;;;24.40;48.90;;;;;;4990256;28;20478;-52
2022/08/21 06:03:18;;;;;;;2.20;2.00;;;24.40;48.90;;;;;;4987756;28;20460;-52
2022/08/21 06:05:47;;;;;;;2.47;2.27;;;24.40;48.90;;;;;;4986967;28;20486;-52
2022/08/21 06:08:21;;;;;;;2.53;2.33;;;24.40;48.90;;;;;;5003501;28;20436;-54
2022/08/21 06:10:51;;;;;;;2.30;2.20;;;24.40;48.90;;;;;;4989404;28;20469;-52
2022/08/21 06:13:21;;;;;;;3.00;2.80;;;24.40;48.90;;;;;;4975329;28;20573;-53
2022/08/21 06:15:50;;;;;;;2.93;2.00;;;24.30;48.80;;;;;;4983282;28;20474;-52
2022/08/21 06:18:19;;;;;;;2.50;2.30;;;24.30;48.90;;;;;;4989411;28;20532;-53
2022/08/21 06:20:48;;;;;;;4.00;2.60;;;24.30;48.90;;;;;;4972786;28;20935;-52
2022/08/21 06:23:18;;;;;;;2.30;2.10;;;24.30;48.90;;;;;;4994082;28;20454;-52
2022/08/21 06:25:47;;;;;;;2.20;2.00;;;24.30;48.80;;;;;;4987295;28;20569;-52
2022/08/21 06:28:15;;;;;;;2.63;2.10;;;24.30;48.90;;;;;;4986347;28;20542;-52
2022/08/21 06:30:44;;;;;;;3.20;2.90;;;24.30;48.90;;;;;;5000954;28;20561;-52
2022/08/21 06:33:13;;;;;;;2.40;2.20;;;24.30;48.90;;;;;;4993409;28;20455;-52
2022/08/21 06:35:45;;;;;;;2.73;2.40;;;24.30;49.00;;;;;;4985294;28;20478;-53
2022/08/21 06:38:14;;;;;;;3.30;2.70;;;24.30;48.90;;;;;;4991511;28;20438;-53
2022/08/21 06:40:44;;;;;;;2.93;2.13;;;24.30;48.80;;;;;;4992674;28;20480;-52
2022/08/21 06:43:18;;;;;;;2.10;1.90;;;24.30;48.70;;;;;;4976099;28;20466;-52
2022/08/21 06:45:47;;;;;;;2.97;2.40;;;24.30;48.70;;;;;;4993127;28;20465;-52
2022/08/21 06:48:19;;;;;;;2.30;2.10;;;24.30;48.70;;;;;;5001785;28;20475;-52
2022/08/21 06:50:47;;;;;;;2.30;2.10;;;24.30;48.50;;;;;;4997182;28;21073;-53
2022/08/21 06:53:19;;;;;;;4.67;2.40;;;24.30;48.90;;;;;;4985539;28;20461;-53
2022/08/21 06:55:52;;;;;;;3.07;2.00;;;24.40;48.70;;;;;;4997580;28;20469;-53
2022/08/21 06:58:20;;;;;;;4.83;2.40;;;24.50;47.50;;;;;;4992519;28;21031;-53
2022/08/21 07:00:52;;;;;;;3.20;2.30;;;24.70;46.90;;;;;;4994602;28;20481;-52
2022/08/21 07:03:30;;;;;;;4.00;1.93;;;24.70;46.50;;;;;;5010704;23;20492;-66
2022/08/21 07:05:59;;;;;;;3.33;2.30;;;24.80;46.10;;;;;;4981653;28;20544;-67
2022/08/21 07:08:28;;;;;;;4.00;2.30;;;24.80;45.80;;;;;;4989485;28;20496;-64
2022/08/21 07:11:01;;;;;;;4.40;2.10;;;24.80;45.70;;;;;;4990184;28;20478;-66
2022/08/21 07:13:30;;;;;;;5.60;3.20;;;24.90;45.40;;;;;;4979514;28;20466;-65
2022/08/21 07:15:58;;;;;;;10.50;2.50;;;24.90;45.30;;;;;;4968395;28;20475;-67
2022/08/21 07:18:31;;;;;;;4.37;2.30;;;24.90;45.40;;;;;;4991170;28;20558;-65
2022/08/21 07:21:01;;;;;;;3.93;1.80;;;24.90;45.30;;;;;;4985839;28;20483;-65
2022/08/21 07:23:32;;;;;;;2.53;2.00;;;24.90;45.10;;;;;;4971108;28;20457;-67
2022/08/21 07:26:02;;;;;;;2.77;1.90;;;24.90;45.00;;;;;;4971984;28;20489;-65
2022/08/21 07:28:31;;;;;;;1.93;1.50;;;24.80;45.10;;;;;;4971712;28;20449;-66
2022/08/21 07:31:01;;;;;;;4.00;1.90;;;24.80;44.80;;;;;;4992364;28;20479;-65
2022/08/21 07:33:31;;;;;;;3.70;2.10;;;24.80;44.60;;;;;;4972708;28;20631;-67
2022/08/21 07:36:00;;;;;;;3.20;1.60;;;24.70;44.80;;;;;;4969898;28;20490;-66
2022/08/21 07:38:28;;;;;;;2.73;1.70;;;24.70;44.70;;;;;;4971680;28;20449;-67
2022/08/21 07:40:58;;;;;;;1.87;1.73;;;24.70;44.90;;;;;;4973541;28;20579;-66
2022/08/21 07:43:29;;;;;;;2.67;1.80;;;24.70;44.80;;;;;;4969463;28;20465;-67
2022/08/21 07:45:57;;;;;;;6.07;2.10;;;24.60;45.10;;;;;;4982425;28;21249;-66
2022/08/21 07:48:25;;;;;;;4.20;1.90;;;24.50;45.40;;;;;;4969376;28;20442;-67
2022/08/21 07:50:55;;;;;;;3.93;2.03;;;24.40;46.90;;;;;;4972653;28;20469;-65
2022/08/21 07:53:23;;;;;;;3.30;1.60;;;24.40;45.60;;;;;;4978323;28;20946;-67
2022/08/21 07:55:51;;;;;;;5.77;2.30;;;24.30;45.50;;;;;;4969210;28;20550;-67
2022/08/21 07:58:19;;;;;;;6.13;2.03;;;24.30;45.80;;;;;;4970976;28;20454;-67
2022/08/21 08:00:50;;;;;;;3.40;1.77;;;24.30;45.90;;;;;;4974157;28;20458;-66
2022/08/21 08:03:18;;;;;;;3.93;2.27;;;24.30;46.10;;;;;;4968430;28;21079;-66
2022/08/21 08:05:56;;;;;;;3.50;1.73;;;24.30;46.10;;;;;;4966761;28;20474;-66
2022/08/21 08:08:25;;;;;;;2.50;2.30;;;24.30;46.30;;;;;;4970232;28;20976;-65
2022/08/21 08:10:54;;;;;;;3.40;1.80;;;24.30;46.30;;;;;;4970253;28;20478;-65
2022/08/21 08:13:22;;;;;;;2.20;1.47;;;24.20;46.40;;;;;;4971255;28;20473;-65
2022/08/21 08:15:52;;;;;;;4.07;1.83;;;24.20;46.10;;;;;;4979697;28;20521;-65
2022/08/21 08:18:21;;;;;;;2.80;1.63;;;24.20;46.30;;;;;;4975191;28;20439;-64
2022/08/21 08:20:49;;;;;;;4.03;1.57;;;24.20;47.60;;;;;;4978697;28;20467;-64
2022/08/21 08:23:17;;;;;;;3.80;1.90;;;24.20;46.60;;;;;;4968577;28;20525;-66
2022/08/21 08:25:46;;;;;;;1.97;1.47;;;24.20;46.40;;;;;;4984464;28;20457;-66
2022/08/21 08:28:14;;;;;;;5.67;1.87;;;24.20;46.50;;;;;;4970119;28;20454;-64
2022/08/21 08:30:45;;;;;;;1.93;1.40;;;24.20;46.40;;;;;;4976814;28;20478;-65
2022/08/21 08:33:16;;;;;;;1.33;1.23;;;24.10;46.40;;;;;;4975371;28;20517;-64
2022/08/21 08:35:47;;;;;;;3.23;1.70;;;24.20;46.50;;;;;;4983841;28;20501;-67
2022/08/21 08:38:18;;;;;;;2.63;1.43;;;24.10;46.50;;;;;;4987061;28;21001;-66
2022/08/21 08:40:57;;;;;;;2.70;1.47;;;24.10;46.60;;;;;;4956522;28;20482;-66
2022/08/21 08:43:25;;;;;;;2.70;1.63;;;24.10;46.70;;;;;;4974180;28;20469;-66
2022/08/21 08:45:55;;;;;;;3.93;1.50;;;24.10;46.60;;;;;;4982923;28;20497;-66
2022/08/21 08:48:39;;;;;;;2.40;1.53;;;24.10;46.70;;;;;;4997733;28;20489;-65
2022/08/21 08:51:15;;;;;;;2.87;1.83;;;24.10;46.70;;;;;;4967842;28;20474;-64
2022/08/21 08:53:51;;;;;;;1.73;1.13;;;24.10;46.70;;;;;;4978720;28;20493;-66
2022/08/21 08:56:27;;;;;;;4.63;1.70;;;24.10;46.90;;;;;;4978100;28;20513;-66
2022/08/21 08:58:58;;;;;;;2.87;1.40;;;24.10;46.80;;;;;;4968614;28;20451;-65
2022/08/21 09:01:27;;;;;;;2.13;1.20;;;24.10;46.70;;;;;;4978331;28;20458;-66
2022/08/21 09:03:58;;;;;;;1.50;1.10;;;24.10;46.80;;;;;;4985739;28;20444;-64
2022/08/21 09:06:41;;;;;;;3.60;1.50;;;24.10;46.70;;;;;;4966100;28;20442;-67
2022/08/21 09:09:22;;;;;;;4.00;1.57;;;24.10;46.80;;;;;;4969068;28;20456;-66
2022/08/21 09:12:00;;;;;;;1.77;1.67;;;24.10;46.80;;;;;;4990592;28;20539;-65
2022/08/21 09:14:40;;;;;;;3.10;1.37;;;24.10;46.90;;;;;;4955672;28;20498;-66
2022/08/21 09:17:20;;;;;;;2.90;1.40;;;24.10;46.80;;;;;;4967006;28;20565;-65
2022/08/21 09:20:02;;;;;;;3.30;1.13;;;24.10;47.00;;;;;;4968628;28;20451;-66
2022/08/21 09:22:41;;;;;;;1.77;1.57;;;24.10;47.10;;;;;;4972975;28;20628;-66
2022/08/21 09:25:15;;;;;;;2.10;1.20;;;24.10;47.00;;;;;;4969264;28;20497;-66
2022/08/21 09:27:44;;;;;;;3.87;1.80;;;24.10;47.20;;;;;;4970363;28;20482;-66
2022/08/21 09:30:13;;;;;;;1.57;1.30;;;24.10;47.00;;;;;;4968097;28;20857;-66
2022/08/21 09:32:42;;;;;;;1.90;1.23;;;24.10;47.10;;;;;;4967579;28;20850;-66
2022/08/21 09:35:15;;;;;;;2.30;1.33;;;24.10;47.10;;;;;;4959577;28;20476;-66
2022/08/21 09:37:52;;;;;;;1.97;1.77;;;24.10;47.10;;;;;;4967905;28;20509;-64
2022/08/21 09:40:30;;;;;;;2.60;1.43;;;24.10;47.10;;;;;;4993607;28;20589;-66
2022/08/21 09:43:01;;;;;;;1.57;1.40;;;24.10;47.10;;;;;;4972788;28;20561;-66
2022/08/21 09:45:30;;;;;;;1.77;1.33;;;24.10;47.20;;;;;;4964286;28;20579;-65
2022/08/21 09:48:12;;;;;;;2.30;1.60;;;24.10;47.00;;;;;;4973338;28;20790;-65
2022/08/21 09:50:43;;;;;;;2.17;1.97;;;24.10;47.00;;;;;;4959052;28;20477;-66
2022/08/21 09:53:20;;;;;;;3.63;1.23;;;24.10;46.90;;;;;;4965193;28;20471;-66
2022/08/21 09:58:46;;;;;;;1.30;1.10;;;24.10;46.80;;;;;;4979442;28;20454;-65
2022/08/21 10:01:16;;;;;;;2.20;1.67;;;24.10;47.00;;;;;;4992807;28;20522;-66
2022/08/21 10:03:47;;;;;;;2.10;1.40;;;24.10;48.20;;;;;;4997076;28;20579;-67
2022/08/21 10:06:26;;;;;;;1.53;1.23;;;24.10;47.10;;;;;;4961441;28;20899;-67
2022/08/21 10:09:06;;;;;;;1.87;1.20;;;24.10;47.20;;;;;;4970503;28;22510;-67
2022/08/21 10:11:35;;;;;;;3.27;1.33;;;24.10;47.20;;;;;;4975750;28;20489;-66
2022/08/21 10:14:18;;;;;;;2.40;1.43;;;24.10;47.20;;;;;;4961889;28;20477;-64
2022/08/21 10:16:57;;;;;;;2.63;1.50;;;24.10;47.10;;;;;;4987164;28;20456;-67
2022/08/21 10:19:33;;;;;;;3.33;1.50;;;24.10;47.00;;;;;;4949535;28;20438;-66
2022/08/21 10:22:14;;;;;;;2.13;1.50;;;24.10;47.00;;;;;;4968783;28;20469;-66
2022/08/21 10:24:52;;;;;;;1.70;1.40;;;24.10;47.00;;;;;;4976981;28;20477;-67
2022/08/21 10:27:28;;;;;;;2.20;1.30;;;24.10;47.10;;;;;;4982592;28;20443;-66
2022/08/21 10:30:02;;;;;;;2.63;1.30;;;24.10;46.90;;;;;;4967422;28;20540;-65
2022/08/21 10:32:47;;;;;;;2.80;1.17;;;24.10;46.90;;;;;;4959583;28;20513;-66
2022/08/21 10:35:22;;;;;;;4.30;1.70;;;24.10;46.80;;;;;;4965279;28;21053;-66
2022/08/21 10:38:09;;;;;;;3.43;1.40;;;24.10;46.20;;;;;;4969105;28;20481;-66
2022/08/21 10:40:43;;;;;;;2.90;1.50;;;24.10;46.20;;;;;;4963041;28;20478;-65
2022/08/21 10:43:28;;;;;;;2.37;1.40;;;24.10;46.20;;;;;;4968985;28;20565;-65
2022/08/21 10:46:04;;;;;;;5.53;1.73;;;24.10;46.50;;;;;;4972185;28;21187;-66
2022/08/21 10:48:37;;;;;;;4.50;1.57;;;24.10;46.40;;;;;;4986562;28;20441;-65
2022/08/21 10:51:13;;;;;;;2.90;1.73;;;24.10;46.50;;;;;;4970616;28;20481;-65
2022/08/21 10:53:54;;;;;;;2.03;1.23;;;24.10;46.60;;;;;;4969108;28;21330;-66
2022/08/21 10:56:25;;;;;;;3.13;1.80;;;24.10;46.50;;;;;;4997620;28;20528;-66
2022/08/21 10:59:08;;;;;;;1.50;1.33;;;24.10;46.50;;;;;;4992927;28;20478;-65
2022/08/21 11:01:45;;;;;;;2.60;1.30;;;24.10;46.50;;;;;;5009450;28;20494;-65
2022/08/21 11:04:22;;;;;;;2.60;1.60;;;24.10;46.50;;;;;;4976176;28;20462;-66
2022/08/21 11:07:02;;;;;;;3.87;1.70;;;24.10;46.60;;;;;;4983716;28;20441;-66
2022/08/21 11:09:48;;;;;;;1.80;1.30;;;24.10;46.70;;;;;;4983861;28;20445;-65
2022/08/21 11:12:26;;;;;;;3.87;1.37;;;24.10;46.60;;;;;;4980832;28;20479;-66
2022/08/21 11:15:02;;;;;;;2.77;1.50;;;24.10;46.50;;;;;;4964513;28;21049;-65
2022/08/21 11:17:36;;;;;;;1.30;1.07;;;24.10;46.60;;;;;;4980436;28;20461;-65
2022/08/21 11:20:11;;;;;;;2.40;1.33;;;24.10;46.50;;;;;;4984899;28;20469;-66
2022/08/21 11:22:47;;;;;;;2.33;1.50;;;24.10;46.50;;;;;;5008602;28;20456;-66
2022/08/21 11:25:28;;;;;;;3.53;1.43;;;24.10;46.60;;;;;;4980764;28;20565;-66
2022/08/21 11:28:09;;;;;;;5.10;1.40;;;24.10;46.50;;;;;;4984967;28;20473;-65
2022/08/21 11:30:53;;;;;;;1.60;1.27;;;24.10;46.40;;;;;;4983827;28;20538;-67
2022/08/21 11:33:34;;;;;;;4.20;1.50;;;24.10;46.50;;;;;;4990749;28;20461;-67
2022/08/21 11:36:14;;;;;;;2.30;1.60;;;24.10;46.50;;;;;;4981001;28;20481;-66
2022/08/21 11:38:45;;;;;;;4.73;2.20;;;24.20;46.70;;;;;;4977147;28;20474;-65
2022/08/21 11:41:25;;;;;;;4.20;1.60;;;24.10;46.70;;;;;;4981236;28;20572;-65
2022/08/21 11:44:01;;;;;;;2.10;1.50;;;24.10;46.70;;;;;;4977552;28;20441;-66
2022/08/21 11:46:40;;;;;;;2.67;1.30;;;24.10;46.60;;;;;;4969144;28;20441;-67
2022/08/21 11:49:41;;;;;;;2.67;1.63;;;24.10;46.40;;;;;;4971456;28;20528;-66
2022/08/21 11:52:17;;;;;;;2.20;1.47;;;24.10;46.50;;;;;;4965641;28;20474;-66
2022/08/21 11:54:53;;;;;;;2.50;1.57;;;24.10;46.60;;;;;;4974754;28;20505;-67
2022/08/21 11:57:28;;;;;;;1.67;1.20;;;24.20;46.40;;;;;;4988666;28;20462;-65
2022/08/21 12:00:02;;;;;;;4.40;1.90;;;24.20;46.60;;;;;;4977763;28;20997;-66
2022/08/21 12:02:46;;;;;;;3.10;1.53;;;24.20;46.60;;;;;;4977088;28;20466;-65
2022/08/21 12:05:27;;;;;;;3.87;1.70;;;24.20;46.70;;;;;;4972833;28;20850;-66
2022/08/21 12:08:05;;;;;;;5.17;1.60;;;24.20;46.50;;;;;;4973694;28;20442;-65
2022/08/21 12:10:39;;;;;;;1.50;0.97;;;24.20;46.10;;;;;;4967118;28;20476;-65
2022/08/21 12:13:14;;;;;;;2.17;1.47;;;24.20;46.40;;;;;;4969286;28;20521;-66
2022/08/21 12:15:43;;;;;;;2.40;0.90;;;24.20;46.40;;;;;;4973599;28;21035;-66
2022/08/21 12:18:24;;;;;;;2.30;1.40;;;24.20;46.50;;;;;;4968522;28;20520;-67
2022/08/21 12:21:04;;;;;;;1.13;1.03;;;24.20;46.60;;;;;;4968570;28;20533;-66
2022/08/21 12:23:36;;;;;;;2.40;1.37;;;24.20;46.70;;;;;;4975841;28;20478;-65
2022/08/21 12:26:20;;;;;;;2.80;1.43;;;24.20;46.50;;;;;;4983345;28;20840;-66
2022/08/21 12:28:51;;;;;;;1.87;1.43;;;24.20;46.70;;;;;;4974721;28;20640;-64
2022/08/21 12:31:22;;;;;;;4.60;1.80;;;24.20;46.80;;;;;;4988915;28;20446;-66
2022/08/21 12:34:00;;;;;;;3.17;1.47;;;24.20;46.80;;;;;;4970114;28;20546;-67
2022/08/21 12:36:42;;;;;;;2.00;1.43;;;24.20;46.80;;;;;;4978983;28;20736;-65
2022/08/21 12:39:17;;;;;;;2.13;1.13;;;24.20;46.70;;;;;;4987913;28;20488;-66
2022/08/21 12:41:51;;;;;;;1.60;1.20;;;24.30;46.80;;;;;;4974891;28;20448;-65
2022/08/21 12:44:25;;;;;;;2.20;1.50;;;24.30;46.70;;;;;;4966682;28;20475;-64
2022/08/21 12:46:59;;;;;;;2.43;1.33;;;24.30;46.70;;;;;;4968849;28;20493;-66
2022/08/21 12:49:31;;;;;;;2.97;1.47;;;24.30;46.70;;;;;;4970195;28;22201;-64
2022/08/21 12:52:06;;;;;;;1.70;1.60;;;24.30;46.80;;;;;;4968881;28;21062;-64
2022/08/21 12:54:40;;;;;;;2.17;1.10;;;24.30;46.80;;;;;;4977579;28;20466;-64
2022/08/21 12:57:17;;;;;;;2.65;1.30;;;24.30;46.90;;;;;;4965287;28;20804;-65
2022/08/21 12:59:52;;;;;;;2.13;1.40;;;24.30;46.70;;;;;;4969617;28;20218;-64
2022/08/21 13:02:24;;;;;;;1.63;1.30;;;24.30;47.00;;;;;;4981000;28;20466;-72
2022/08/21 13:04:56;;;;;;;1.50;1.30;;;24.30;46.80;;;;;;5016033;23;20523;-94
2022/08/21 13:07:28;;;;;;;2.80;1.50;;;24.30;46.80;;;;;;4974204;28;20466;-94
2022/08/21 13:09:59;;;;;;;1.90;1.17;;;24.30;46.80;;;;;;4977151;28;20490;-92
2022/08/21 13:12:29;;;;;;;3.85;1.88;;;24.30;47.00;;;;;;4976209;28;20621;-94
2022/08/21 13:15:05;;;;;;;2.60;1.70;;;24.40;47.00;;;;;;4995128;28;20473;-95
2022/08/21 13:17:42;;;;;;;3.40;1.50;;;24.40;46.60;;;;;;4988916;28;20194;-95